createdAt,value
2023-07-16T00:00:35.710Z,71.38
2023-07-16T00:01:35.761Z,71.45
2023-07-16T00:02:35.750Z,71.03
2023-07-16T00:03:35.693Z,70.95
2023-07-16T00:04:35.781Z,71.04
2023-07-16T00:05:35.656Z,71.02
2023-07-16T00:06:35.649Z,71.22
2023-07-16T00:07:35.676Z,70.96
2023-07-16T00:08:35.633Z,71.07
2023-07-16T00:09:35.638Z,70.99
2023-07-16T00:10:35.612Z,71.17
2023-07-16T00:11:35.616Z,71.60
2023-07-16T00:12:35.618Z,71.56
2023-07-16T00:13:35.586Z,71.25
2023-07-16T00:14:35.557Z,71.49
2023-07-16T00:15:36.550Z,71.19
2023-07-16T00:16:35.899Z,71.94
2023-07-16T00:17:35.768Z,72.21
2023-07-16T00:18:35.533Z,72.47
2023-07-16T00:19:35.564Z,72.04
2023-07-16T00:20:35.556Z,71.73
2023-07-16T00:21:35.540Z,71.89
2023-07-16T00:22:35.590Z,72.03
2023-07-16T00:23:35.530Z,71.65
2023-07-16T00:24:35.493Z,71.55
2023-07-16T00:25:35.494Z,71.25
2023-07-16T00:26:35.484Z,71.31
2023-07-16T00:27:35.481Z,71.40
2023-07-16T00:28:35.430Z,71.58
2023-07-16T00:29:36.430Z,71.73
2023-07-16T00:30:35.516Z,71.63
2023-07-16T00:31:35.424Z,71.32
2023-07-16T00:32:35.426Z,71.17
2023-07-16T00:33:35.394Z,70.99
2023-07-16T00:34:35.386Z,71.02
2023-07-16T00:35:35.383Z,71.15
2023-07-16T00:36:35.360Z,71.12
2023-07-16T00:37:35.362Z,71.17
2023-07-16T00:38:35.332Z,71.27
2023-07-16T00:39:35.359Z,71.42
2023-07-16T00:40:35.355Z,71.06
2023-07-16T00:41:35.322Z,71.27
2023-07-16T00:42:35.299Z,71.16
2023-07-16T00:43:35.301Z,71.27
2023-07-16T00:44:35.313Z,71.32
2023-07-16T00:45:35.292Z,71.08
2023-07-16T00:46:35.290Z,71.11
2023-07-16T00:47:35.294Z,71.06
2023-07-16T00:48:35.237Z,71.04
2023-07-16T00:49:35.249Z,70.91
2023-07-16T00:50:35.235Z,70.72
2023-07-16T00:51:35.236Z,70.76
2023-07-16T00:52:35.205Z,70.86
2023-07-16T00:53:35.207Z,70.92
2023-07-16T00:54:35.205Z,70.74
2023-07-16T00:55:35.182Z,70.65
2023-07-16T00:56:35.183Z,68.36
2023-07-16T00:57:35.174Z,72.27
2023-07-16T00:58:35.157Z,73.06
2023-07-16T00:59:35.142Z,73.36
2023-07-16T01:00:35.127Z,72.61
2023-07-16T01:01:35.173Z,72.33
2023-07-16T01:02:35.116Z,72.28
2023-07-16T01:03:35.108Z,72.36
2023-07-16T01:04:35.152Z,72.49
2023-07-16T01:05:35.084Z,72.01
2023-07-16T01:06:35.138Z,71.88
2023-07-16T01:07:35.075Z,71.69
2023-07-16T01:08:35.109Z,71.84
2023-07-16T01:09:35.052Z,72.79
2023-07-16T01:10:35.031Z,71.77
2023-07-16T01:11:35.057Z,71.54
2023-07-16T01:12:35.027Z,71.62
2023-07-16T01:13:35.018Z,71.59
2023-07-16T01:14:34.984Z,71.33
2023-07-16T01:15:34.988Z,71.39
2023-07-16T01:16:35.002Z,71.34
2023-07-16T01:17:35.039Z,71.53
2023-07-16T01:18:34.961Z,71.60
2023-07-16T01:19:34.945Z,71.77
2023-07-16T01:20:34.945Z,71.76
2023-07-16T01:21:34.937Z,71.68
2023-07-16T01:22:35.036Z,71.47
2023-07-16T01:23:34.899Z,71.48
2023-07-16T01:24:34.895Z,71.57
2023-07-16T01:25:34.900Z,71.34
2023-07-16T01:26:34.939Z,71.23
2023-07-16T01:27:34.877Z,71.38
2023-07-16T01:28:34.859Z,71.60
2023-07-16T01:29:34.864Z,71.58
2023-07-16T01:30:34.864Z,71.74
2023-07-16T01:31:34.884Z,71.13
2023-07-16T01:32:34.858Z,71.15
2023-07-16T01:33:34.809Z,71.27
2023-07-16T01:34:34.787Z,71.15
2023-07-16T01:35:34.824Z,71.04
2023-07-16T01:36:34.788Z,70.93
2023-07-16T01:37:34.783Z,71.14
2023-07-16T01:38:34.758Z,71.13
2023-07-16T01:39:34.753Z,70.15
2023-07-16T01:40:34.753Z,71.07
2023-07-16T01:41:34.729Z,71.03
2023-07-16T01:42:34.736Z,71.05
2023-07-16T01:43:34.709Z,70.86
2023-07-16T01:44:34.883Z,71.33
2023-07-16T01:45:34.721Z,67.02
2023-07-16T01:46:34.751Z,64.49
2023-07-16T01:47:34.681Z,65.69
2023-07-16T01:48:34.671Z,65.32
2023-07-16T01:49:34.681Z,71.05
2023-07-16T01:50:34.656Z,73.14
2023-07-16T01:51:34.626Z,72.30
2023-07-16T01:52:34.621Z,72.22
2023-07-16T01:53:34.618Z,72.29
2023-07-16T01:54:34.620Z,71.94
2023-07-16T01:55:34.606Z,72.02
2023-07-16T01:56:34.607Z,72.10
2023-07-16T01:57:34.577Z,72.15
2023-07-16T01:58:34.576Z,71.92
2023-07-16T01:59:34.577Z,71.81
2023-07-16T02:00:34.543Z,71.84
2023-07-16T02:01:34.578Z,71.83
2023-07-16T02:02:34.592Z,71.89
2023-07-16T02:03:34.702Z,72.01
2023-07-16T02:04:34.513Z,71.74
2023-07-16T02:05:35.279Z,71.87
2023-07-16T02:06:34.478Z,71.74
2023-07-16T02:07:34.493Z,72.08
2023-07-16T02:08:34.491Z,71.48
2023-07-16T02:09:34.457Z,71.30
2023-07-16T02:10:34.450Z,71.53
2023-07-16T02:11:34.434Z,71.28
2023-07-16T02:12:34.440Z,71.24
2023-07-16T02:13:34.432Z,71.41
2023-07-16T02:14:34.471Z,71.03
2023-07-16T02:15:34.393Z,71.15
2023-07-16T02:16:34.431Z,71.27
2023-07-16T02:17:34.450Z,71.27
2023-07-16T02:18:34.367Z,71.23
2023-07-16T02:19:34.362Z,70.82
2023-07-16T02:20:34.341Z,70.72
2023-07-16T02:21:34.336Z,70.64
2023-07-16T02:22:34.436Z,70.56
2023-07-16T02:23:34.329Z,70.73
2023-07-16T02:24:34.300Z,70.58
2023-07-16T02:25:34.294Z,70.62
2023-07-16T02:26:34.320Z,70.82
2023-07-16T02:27:34.289Z,70.84
2023-07-16T02:28:34.267Z,70.34
2023-07-16T02:29:34.292Z,71.42
2023-07-16T02:30:34.239Z,71.84
2023-07-16T02:31:34.255Z,71.90
2023-07-16T02:32:34.236Z,71.78
2023-07-16T02:33:34.218Z,71.79
2023-07-16T02:34:34.189Z,71.71
2023-07-16T02:35:34.206Z,71.69
2023-07-16T02:36:34.209Z,71.76
2023-07-16T02:37:34.185Z,71.70
2023-07-16T02:38:34.156Z,71.54
2023-07-16T02:39:34.162Z,71.57
2023-07-16T02:40:34.173Z,71.64
2023-07-16T02:41:34.424Z,71.46
2023-07-16T02:42:34.122Z,71.60
2023-07-16T02:43:34.126Z,71.71
2023-07-16T02:44:34.125Z,71.66
2023-07-16T02:45:34.133Z,71.40
2023-07-16T02:46:34.127Z,71.64
2023-07-16T02:47:34.101Z,71.76
2023-07-16T02:48:34.085Z,71.44
2023-07-16T02:49:34.069Z,71.40
2023-07-16T02:50:34.081Z,71.51
2023-07-16T02:51:34.044Z,71.18
2023-07-16T02:52:34.034Z,71.31
2023-07-16T02:53:34.018Z,71.22
2023-07-16T02:54:34.034Z,71.18
2023-07-16T02:55:34.010Z,71.41
2023-07-16T02:56:34.006Z,71.24
2023-07-16T02:57:33.978Z,71.28
2023-07-16T02:58:33.984Z,71.32
2023-07-16T02:59:33.989Z,71.20
2023-07-16T03:00:33.956Z,70.85
2023-07-16T03:01:34.044Z,71.06
2023-07-16T03:02:34.055Z,71.00
2023-07-16T03:03:34.882Z,71.25
2023-07-16T03:04:33.946Z,71.24
2023-07-16T03:05:33.930Z,70.85
2023-07-16T03:06:33.895Z,70.96
2023-07-16T03:07:33.924Z,71.02
2023-07-16T03:08:33.897Z,70.47
2023-07-16T03:09:33.884Z,71.07
2023-07-16T03:10:33.883Z,71.10
2023-07-16T03:11:33.861Z,70.66
2023-07-16T03:12:33.934Z,70.94
2023-07-16T03:13:34.859Z,70.89
2023-07-16T03:14:33.812Z,70.97
2023-07-16T03:15:33.814Z,70.73
2023-07-16T03:16:33.809Z,70.69
2023-07-16T03:17:33.857Z,70.60
2023-07-16T03:18:33.806Z,70.23
2023-07-16T03:19:33.779Z,69.65
2023-07-16T03:20:33.757Z,69.28
2023-07-16T03:21:33.753Z,69.83
2023-07-16T03:22:33.771Z,69.57
2023-07-16T03:23:33.737Z,70.11
2023-07-16T03:24:33.710Z,69.39
2023-07-16T03:25:33.717Z,69.97
2023-07-16T03:26:33.688Z,70.07
2023-07-16T03:27:33.698Z,69.58
2023-07-16T03:28:40.799Z,69.39
2023-07-16T03:29:33.670Z,71.81
2023-07-16T03:30:33.647Z,71.09
2023-07-16T03:31:33.678Z,71.12
2023-07-16T03:32:50.052Z,71.22
2023-07-16T03:33:35.688Z,71.09
2023-07-16T03:34:33.615Z,70.45
2023-07-16T03:35:33.616Z,70.42
2023-07-16T03:36:33.611Z,69.80
2023-07-16T03:37:33.623Z,65.54
2023-07-16T03:38:33.575Z,69.57
2023-07-16T03:39:33.598Z,71.47
2023-07-16T03:40:33.556Z,71.21
2023-07-16T03:41:33.576Z,72.05
2023-07-16T03:42:33.542Z,72.17
2023-07-16T03:43:33.524Z,71.78
2023-07-16T03:44:33.522Z,72.11
2023-07-16T03:45:33.510Z,72.32
2023-07-16T03:46:33.512Z,71.86
2023-07-16T03:47:33.552Z,71.90
2023-07-16T03:48:33.546Z,72.33
2023-07-16T03:49:33.506Z,72.23
2023-07-16T03:50:33.485Z,72.13
2023-07-16T03:51:33.466Z,72.12
2023-07-16T03:52:33.447Z,72.11
2023-07-16T03:53:33.451Z,72.04
2023-07-16T03:54:33.426Z,71.75
2023-07-16T03:55:33.442Z,71.60
2023-07-16T03:56:33.404Z,71.52
2023-07-16T03:57:33.411Z,71.83
2023-07-16T03:58:33.377Z,72.03
2023-07-16T03:59:33.390Z,71.84
2023-07-16T04:00:33.392Z,71.69
2023-07-16T04:01:33.403Z,71.52
2023-07-16T04:02:33.352Z,71.63
2023-07-16T04:03:33.408Z,71.61
2023-07-16T04:04:33.346Z,71.67
2023-07-16T04:05:33.464Z,71.49
2023-07-16T04:06:33.303Z,71.50
2023-07-16T04:07:33.330Z,71.35
2023-07-16T04:08:33.299Z,71.59
2023-07-16T04:09:33.289Z,71.74
2023-07-16T04:10:33.266Z,71.67
2023-07-16T04:11:33.266Z,71.26
2023-07-16T04:12:33.259Z,71.41
2023-07-16T04:13:33.288Z,71.43
2023-07-16T04:14:33.252Z,71.49
2023-07-16T04:15:33.258Z,71.49
2023-07-16T04:16:33.280Z,71.58
2023-07-16T04:17:33.264Z,71.45
2023-07-16T04:18:33.446Z,71.45
2023-07-16T04:19:33.230Z,71.00
2023-07-16T04:20:33.200Z,71.51
2023-07-16T04:21:33.161Z,71.39
2023-07-16T04:22:33.211Z,71.37
2023-07-16T04:23:33.183Z,71.30
2023-07-16T04:24:33.138Z,71.87
2023-07-16T04:25:33.119Z,71.40
2023-07-16T04:26:33.111Z,71.24
2023-07-16T04:27:33.101Z,71.08
2023-07-16T04:28:33.119Z,71.27
2023-07-16T04:29:33.098Z,71.18
2023-07-16T04:30:33.179Z,71.02
2023-07-16T04:31:33.086Z,71.10
2023-07-16T04:32:33.090Z,71.10
2023-07-16T04:33:33.086Z,70.88
2023-07-16T04:34:33.040Z,70.95
2023-07-16T04:35:33.029Z,70.77
2023-07-16T04:36:33.004Z,70.95
2023-07-16T04:37:33.017Z,70.61
2023-07-16T04:38:33.007Z,71.01
2023-07-16T04:39:33.022Z,70.79
2023-07-16T04:40:32.976Z,70.63
2023-07-16T04:41:32.969Z,70.53
2023-07-16T04:42:32.980Z,70.52
2023-07-16T04:43:32.951Z,70.22
2023-07-16T04:44:32.950Z,70.79
2023-07-16T04:45:32.947Z,70.75
2023-07-16T04:46:32.969Z,70.37
2023-07-16T04:47:32.935Z,70.62
2023-07-16T04:48:32.894Z,70.39
2023-07-16T04:49:32.899Z,70.68
2023-07-16T04:50:32.868Z,70.42
2023-07-16T04:51:32.880Z,70.47
2023-07-16T04:52:32.870Z,70.49
2023-07-16T04:53:32.851Z,70.06
2023-07-16T04:54:32.838Z,70.06
2023-07-16T04:55:32.834Z,70.15
2023-07-16T04:56:33.042Z,69.95
2023-07-16T04:57:32.813Z,70.23
2023-07-16T04:58:32.813Z,69.98
2023-07-16T04:59:32.796Z,70.08
2023-07-16T05:00:32.798Z,69.84
2023-07-16T05:01:32.824Z,69.90
2023-07-16T05:02:32.794Z,69.94
2023-07-16T05:03:32.795Z,71.08
2023-07-16T05:04:32.937Z,71.07
2023-07-16T05:05:32.767Z,70.38
2023-07-16T05:06:32.731Z,71.03
2023-07-16T05:07:32.718Z,71.40
2023-07-16T05:08:32.725Z,71.35
2023-07-16T05:09:32.688Z,71.69
2023-07-16T05:10:32.725Z,71.63
2023-07-16T05:11:32.689Z,71.36
2023-07-16T05:12:32.680Z,71.35
2023-07-16T05:13:32.665Z,71.22
2023-07-16T05:14:32.676Z,71.33
2023-07-16T05:15:32.656Z,71.12
2023-07-16T05:16:32.748Z,71.28
2023-07-16T05:17:32.660Z,71.08
2023-07-16T05:18:32.623Z,71.12
2023-07-16T05:19:32.643Z,71.41
2023-07-16T05:20:32.598Z,71.16
2023-07-16T05:21:32.599Z,71.02
2023-07-16T05:22:32.615Z,70.89
2023-07-16T05:23:32.574Z,70.82
2023-07-16T05:24:32.576Z,70.88
2023-07-16T05:25:32.917Z,71.00
2023-07-16T05:26:33.543Z,70.79
2023-07-16T05:27:32.532Z,70.50
2023-07-16T05:28:32.925Z,70.35
2023-07-16T05:29:32.520Z,70.60
2023-07-16T05:30:32.486Z,70.52
2023-07-16T05:31:32.500Z,70.31
2023-07-16T05:32:32.553Z,69.67
2023-07-16T05:33:32.482Z,69.70
2023-07-16T05:34:32.459Z,69.90
2023-07-16T05:35:32.459Z,69.55
2023-07-16T05:36:32.456Z,69.67
2023-07-16T05:37:32.425Z,69.42
2023-07-16T05:38:32.435Z,69.36
2023-07-16T05:39:32.403Z,69.53
2023-07-16T05:40:32.409Z,69.41
2023-07-16T05:41:32.394Z,69.67
2023-07-16T05:42:32.394Z,69.80
2023-07-16T05:43:32.393Z,69.72
2023-07-16T05:44:32.368Z,70.00
2023-07-16T05:45:32.347Z,69.98
2023-07-16T05:46:32.418Z,69.51
2023-07-16T05:47:32.447Z,69.58
2023-07-16T05:48:32.521Z,69.41
2023-07-16T05:49:32.338Z,69.90
2023-07-16T05:50:32.308Z,69.56
2023-07-16T05:51:32.318Z,69.95
2023-07-16T05:52:32.322Z,70.39
2023-07-16T05:53:32.291Z,71.17
2023-07-16T05:54:32.268Z,70.77
2023-07-16T05:55:32.279Z,70.06
2023-07-16T05:56:32.296Z,69.70
2023-07-16T05:57:32.262Z,69.71
2023-07-16T05:58:32.294Z,69.81
2023-07-16T05:59:32.228Z,69.46
2023-07-16T06:00:32.205Z,69.39
2023-07-16T06:01:32.259Z,69.43
2023-07-16T06:02:32.208Z,69.56
2023-07-16T06:03:32.232Z,69.47
2023-07-16T06:04:32.166Z,69.26
2023-07-16T06:05:32.179Z,69.09
2023-07-16T06:06:32.173Z,68.69
2023-07-16T06:07:32.157Z,66.98
2023-07-16T06:08:32.881Z,65.17
2023-07-16T06:09:32.125Z,64.16
2023-07-16T06:10:32.135Z,63.46
2023-07-16T06:11:32.103Z,63.61
2023-07-16T06:12:32.091Z,63.45
2023-07-16T06:13:32.098Z,63.17
2023-07-16T06:14:32.078Z,62.81
2023-07-16T06:15:32.096Z,62.74
2023-07-16T06:16:32.131Z,63.00
2023-07-16T06:17:32.143Z,62.83
2023-07-16T06:18:32.040Z,62.44
2023-07-16T06:19:32.063Z,63.00
2023-07-16T06:20:32.039Z,62.49
2023-07-16T06:21:32.870Z,62.52
2023-07-16T06:22:32.055Z,62.83
2023-07-16T06:23:31.979Z,63.02
2023-07-16T06:24:31.991Z,62.99
2023-07-16T06:25:31.951Z,63.19
2023-07-16T06:26:31.955Z,62.83
2023-07-16T06:27:31.937Z,63.42
2023-07-16T06:28:31.934Z,62.81
2023-07-16T06:29:31.954Z,63.05
2023-07-16T06:30:31.920Z,63.52
2023-07-16T06:31:31.919Z,62.60
2023-07-16T06:32:31.958Z,62.20
2023-07-16T06:33:31.909Z,63.47
2023-07-16T06:34:31.900Z,63.11
2023-07-16T06:35:31.905Z,62.83
2023-07-16T06:36:31.853Z,61.86
2023-07-16T06:37:31.833Z,62.92
2023-07-16T06:38:31.873Z,61.77
2023-07-16T06:39:31.852Z,62.17
2023-07-16T06:40:31.829Z,62.59
2023-07-16T06:41:31.821Z,62.34
2023-07-16T06:42:31.794Z,61.98
2023-07-16T06:43:31.833Z,62.66
2023-07-16T06:44:31.788Z,62.64
2023-07-16T06:45:34.442Z,61.96
2023-07-16T06:46:31.782Z,62.17
2023-07-16T06:47:31.799Z,61.57
2023-07-16T06:48:31.767Z,62.47
2023-07-16T06:49:31.741Z,61.24
2023-07-16T06:50:31.723Z,62.77
2023-07-16T06:51:31.722Z,61.83
2023-07-16T06:52:31.750Z,62.28
2023-07-16T06:53:31.692Z,61.94
2023-07-16T06:54:31.684Z,61.63
2023-07-16T06:55:32.681Z,61.83
2023-07-16T06:56:31.693Z,61.47
2023-07-16T06:57:31.674Z,61.90
2023-07-16T06:58:31.668Z,62.32
2023-07-16T06:59:31.644Z,61.49
2023-07-16T07:00:31.671Z,60.75
2023-07-16T07:01:31.758Z,61.05
2023-07-16T07:02:31.631Z,61.28
2023-07-16T07:03:31.646Z,61.46
2023-07-16T07:04:31.593Z,61.47
2023-07-16T07:05:31.577Z,61.49
2023-07-16T07:06:31.586Z,61.49
2023-07-16T07:07:31.564Z,61.12
2023-07-16T07:08:31.579Z,62.58
2023-07-16T07:09:31.543Z,61.98
2023-07-16T07:10:31.543Z,62.03
2023-07-16T07:11:31.554Z,61.65
2023-07-16T07:12:31.524Z,61.37
2023-07-16T07:13:31.496Z,61.61
2023-07-16T07:14:32.509Z,61.88
2023-07-16T07:15:31.504Z,61.52
2023-07-16T07:16:31.549Z,61.72
2023-07-16T07:17:31.494Z,61.36
2023-07-16T07:18:31.589Z,61.32
2023-07-16T07:19:31.456Z,61.89
2023-07-16T07:20:31.453Z,61.68
2023-07-16T07:21:31.440Z,61.95
2023-07-16T07:22:31.535Z,61.51
2023-07-16T07:23:31.449Z,61.49
2023-07-16T07:24:31.392Z,62.00
2023-07-16T07:25:31.434Z,61.78
2023-07-16T07:26:31.374Z,62.44
2023-07-16T07:27:31.374Z,61.94
2023-07-16T07:28:31.431Z,62.43
2023-07-16T07:29:31.365Z,62.02
2023-07-16T07:30:31.367Z,61.57
2023-07-16T07:31:31.374Z,61.88
2023-07-16T07:32:31.336Z,61.96
2023-07-16T07:33:32.314Z,61.42
2023-07-16T07:34:31.323Z,62.23
2023-07-16T07:35:31.302Z,62.11
2023-07-16T07:36:31.299Z,61.26
2023-07-16T07:37:31.292Z,62.00
2023-07-16T07:38:31.294Z,62.31
2023-07-16T07:39:31.267Z,61.88
2023-07-16T07:40:31.239Z,62.80
2023-07-16T07:41:31.231Z,62.30
2023-07-16T07:42:31.382Z,61.29
2023-07-16T07:43:31.247Z,61.92
2023-07-16T07:44:31.209Z,61.81
2023-07-16T07:45:31.197Z,61.90
2023-07-16T07:46:31.207Z,61.92
2023-07-16T07:47:31.217Z,61.05
2023-07-16T07:48:31.180Z,61.75
2023-07-16T07:49:31.163Z,61.56
2023-07-16T07:50:31.166Z,62.02
2023-07-16T07:51:31.174Z,61.80
2023-07-16T07:52:31.160Z,62.09
2023-07-16T07:53:31.147Z,62.22
2023-07-16T07:54:31.120Z,61.54
2023-07-16T07:55:31.097Z,62.67
2023-07-16T07:56:31.076Z,61.80
2023-07-16T07:57:31.083Z,62.05
2023-07-16T07:58:31.069Z,62.46
2023-07-16T07:59:31.051Z,61.71
2023-07-16T08:00:31.059Z,61.76
2023-07-16T08:01:31.042Z,62.08
2023-07-16T08:02:31.077Z,62.09
2023-07-16T08:03:31.206Z,62.19
2023-07-16T08:04:31.145Z,61.81
2023-07-16T08:05:31.001Z,62.33
2023-07-16T08:06:30.990Z,61.70
2023-07-16T08:07:30.996Z,61.37
2023-07-16T08:08:30.982Z,61.00
2023-07-16T08:09:30.959Z,61.51
2023-07-16T08:10:30.967Z,61.17
2023-07-16T08:11:30.953Z,61.61
2023-07-16T08:12:30.928Z,61.47
2023-07-16T08:13:30.934Z,62.37
2023-07-16T08:14:30.895Z,61.86
2023-07-16T08:15:30.925Z,61.45
2023-07-16T08:16:30.908Z,61.40
2023-07-16T08:17:30.954Z,61.49
2023-07-16T08:18:30.915Z,62.45
2023-07-16T08:19:30.869Z,61.81
2023-07-16T08:20:30.886Z,61.95
2023-07-16T08:21:30.858Z,63.20
2023-07-16T08:22:30.855Z,63.17
2023-07-16T08:23:30.822Z,62.98
2023-07-16T08:24:30.828Z,62.54
2023-07-16T08:25:30.833Z,62.95
2023-07-16T08:26:30.813Z,63.49
2023-07-16T08:27:30.793Z,62.78
2023-07-16T08:28:30.791Z,62.43
2023-07-16T08:29:30.828Z,62.33
2023-07-16T08:30:30.783Z,61.69
2023-07-16T08:31:30.845Z,61.88
2023-07-16T08:32:30.824Z,62.62
2023-07-16T08:33:30.735Z,62.13
2023-07-16T08:34:30.741Z,62.67
2023-07-16T08:35:30.706Z,62.06
2023-07-16T08:36:30.717Z,61.67
2023-07-16T08:37:30.686Z,61.73
2023-07-16T08:38:30.686Z,61.94
2023-07-16T08:39:30.702Z,62.78
2023-07-16T08:40:30.683Z,61.50
2023-07-16T08:41:30.658Z,61.52
2023-07-16T08:42:30.686Z,62.35
2023-07-16T08:43:30.652Z,61.97
2023-07-16T08:44:30.668Z,62.06
2023-07-16T08:45:30.633Z,62.23
2023-07-16T08:46:30.645Z,62.13
2023-07-16T08:47:30.645Z,62.49
2023-07-16T08:48:30.604Z,61.76
2023-07-16T08:49:30.596Z,62.15
2023-07-16T08:50:32.731Z,62.22
2023-07-16T08:51:30.564Z,63.11
2023-07-16T08:52:30.575Z,61.99
2023-07-16T08:53:30.580Z,61.98
2023-07-16T08:54:30.527Z,61.83
2023-07-16T08:55:30.527Z,62.18
2023-07-16T08:56:30.546Z,62.20
2023-07-16T08:57:30.539Z,62.13
2023-07-16T08:58:30.523Z,61.86
2023-07-16T08:59:30.507Z,62.01
2023-07-16T09:00:30.501Z,62.08
2023-07-16T09:01:30.512Z,62.12
2023-07-16T09:02:30.524Z,62.41
2023-07-16T09:03:30.468Z,61.61
2023-07-16T09:04:30.481Z,62.14
2023-07-16T09:05:39.550Z,61.76
2023-07-16T09:06:32.482Z,61.60
2023-07-16T09:07:30.431Z,61.82
2023-07-16T09:08:30.425Z,62.21
2023-07-16T09:09:30.413Z,62.25
2023-07-16T09:10:30.401Z,62.09
2023-07-16T09:11:30.400Z,62.17
2023-07-16T09:12:30.399Z,62.30
2023-07-16T09:13:30.370Z,61.80
2023-07-16T09:14:30.343Z,61.36
2023-07-16T09:15:30.353Z,62.15
2023-07-16T09:16:30.358Z,61.88
2023-07-16T09:17:30.386Z,61.63
2023-07-16T09:18:30.327Z,61.95
2023-07-16T09:19:30.310Z,62.40
2023-07-16T09:20:30.289Z,62.22
2023-07-16T09:21:30.319Z,61.84
2023-07-16T09:22:30.278Z,62.79
2023-07-16T09:23:30.280Z,62.12
2023-07-16T09:24:30.276Z,62.11
2023-07-16T09:25:30.310Z,62.10
2023-07-16T09:26:30.283Z,62.29
2023-07-16T09:27:30.227Z,61.80
2023-07-16T09:28:40.848Z,62.14
2023-07-16T09:29:30.212Z,62.37
2023-07-16T09:30:30.242Z,62.07
2023-07-16T09:31:31.293Z,62.12
2023-07-16T09:32:30.218Z,62.21
2023-07-16T09:33:30.151Z,62.38
2023-07-16T09:34:30.175Z,61.79
2023-07-16T09:35:30.179Z,62.06
2023-07-16T09:36:30.150Z,62.40
2023-07-16T09:37:30.119Z,62.23
2023-07-16T09:38:30.122Z,62.27
2023-07-16T09:39:30.117Z,62.87
2023-07-16T09:40:30.126Z,62.75
2023-07-16T09:41:30.096Z,62.38
2023-07-16T09:42:30.089Z,61.96
2023-07-16T09:43:30.067Z,62.51
2023-07-16T09:44:30.090Z,63.55
2023-07-16T09:45:30.076Z,63.32
2023-07-16T09:46:30.094Z,63.33
2023-07-16T09:47:30.067Z,62.63
2023-07-16T09:48:30.048Z,62.53
2023-07-16T09:49:30.044Z,62.09
2023-07-16T09:50:29.999Z,62.57
2023-07-16T09:51:29.999Z,62.71
2023-07-16T09:52:29.997Z,63.20
2023-07-16T09:53:29.986Z,64.26
2023-07-16T09:54:29.970Z,63.81
2023-07-16T09:55:29.954Z,63.44
2023-07-16T09:56:29.969Z,62.72
2023-07-16T09:57:29.938Z,62.87
2023-07-16T09:58:29.951Z,62.76
2023-07-16T09:59:29.920Z,62.45
2023-07-16T10:00:29.896Z,62.52
2023-07-16T10:01:30.101Z,62.76
2023-07-16T10:02:29.953Z,62.71
2023-07-16T10:03:29.888Z,62.27
2023-07-16T10:04:29.879Z,62.28
2023-07-16T10:05:29.856Z,63.13
2023-07-16T10:06:29.837Z,62.91
2023-07-16T10:07:29.843Z,63.11
2023-07-16T10:08:29.852Z,62.38
2023-07-16T10:09:29.828Z,62.69
2023-07-16T10:10:29.797Z,63.03
2023-07-16T10:11:29.898Z,63.09
2023-07-16T10:12:29.859Z,62.95
2023-07-16T10:13:29.769Z,63.32
2023-07-16T10:14:29.771Z,62.98
2023-07-16T10:15:29.767Z,62.84
2023-07-16T10:16:29.798Z,63.43
2023-07-16T10:17:29.768Z,63.50
2023-07-16T10:18:29.714Z,62.20
2023-07-16T10:19:29.716Z,63.77
2023-07-16T10:20:29.729Z,63.87
2023-07-16T10:21:29.720Z,63.84
2023-07-16T10:22:29.692Z,63.83
2023-07-16T10:23:29.688Z,63.65
2023-07-16T10:24:29.679Z,63.52
2023-07-16T10:25:29.681Z,63.94
2023-07-16T10:26:29.663Z,63.89
2023-07-16T10:27:29.660Z,64.24
2023-07-16T10:28:29.649Z,64.81
2023-07-16T10:29:29.627Z,64.66
2023-07-16T10:30:29.632Z,64.94
2023-07-16T10:31:29.639Z,64.96
2023-07-16T10:32:29.675Z,64.47
2023-07-16T10:33:29.623Z,64.22
2023-07-16T10:34:29.599Z,63.80
2023-07-16T10:35:29.605Z,63.74
2023-07-16T10:36:29.595Z,62.27
2023-07-16T10:37:29.576Z,62.01
2023-07-16T10:38:29.546Z,64.06
2023-07-16T10:39:29.555Z,63.41
2023-07-16T10:40:29.553Z,62.70
2023-07-16T10:41:29.504Z,62.19
2023-07-16T10:42:29.514Z,61.65
2023-07-16T10:43:29.493Z,60.50
2023-07-16T10:44:29.496Z,60.82
2023-07-16T10:45:29.485Z,61.04
2023-07-16T10:46:29.553Z,61.95
2023-07-16T10:47:29.517Z,62.25
2023-07-16T10:48:29.459Z,62.11
2023-07-16T10:49:29.495Z,61.41
2023-07-16T10:50:29.435Z,62.51
2023-07-16T10:51:29.454Z,61.43
2023-07-16T10:52:29.413Z,61.46
2023-07-16T10:53:29.423Z,60.95
2023-07-16T10:54:29.395Z,59.63
2023-07-16T10:55:29.379Z,58.57
2023-07-16T10:56:29.376Z,57.74
2023-07-16T10:57:29.353Z,58.21
2023-07-16T10:58:29.365Z,59.57
2023-07-16T10:59:29.334Z,59.44
2023-07-16T11:00:29.349Z,58.79
2023-07-16T11:01:29.349Z,59.48
2023-07-16T11:02:29.457Z,58.18
2023-07-16T11:03:29.461Z,58.82
2023-07-16T11:04:29.298Z,59.81
2023-07-16T11:05:29.279Z,59.29
2023-07-16T11:06:29.282Z,58.80
2023-07-16T11:07:29.287Z,59.75
2023-07-16T11:08:29.256Z,59.20
2023-07-16T11:09:29.254Z,60.26
2023-07-16T11:10:29.244Z,60.03
2023-07-16T11:11:29.245Z,60.38
2023-07-16T11:12:29.252Z,60.06
2023-07-16T11:13:29.222Z,58.77
2023-07-16T11:14:29.200Z,58.76
2023-07-16T11:15:29.201Z,59.15
2023-07-16T11:16:29.244Z,60.52
2023-07-16T11:17:29.241Z,59.74
2023-07-16T11:18:29.168Z,60.33
2023-07-16T11:19:29.187Z,59.16
2023-07-16T11:20:29.157Z,59.46
2023-07-16T11:21:29.150Z,58.10
2023-07-16T11:22:29.180Z,58.32
2023-07-16T11:23:29.156Z,58.22
2023-07-16T11:24:29.127Z,58.81
2023-07-16T11:25:29.112Z,58.43
2023-07-16T11:26:29.105Z,59.05
2023-07-16T11:27:29.115Z,58.66
2023-07-16T11:28:29.069Z,58.81
2023-07-16T11:29:29.066Z,58.81
2023-07-16T11:30:29.109Z,57.39
2023-07-16T11:31:29.083Z,58.22
2023-07-16T11:32:29.197Z,58.28
2023-07-16T11:33:29.049Z,58.05
2023-07-16T11:34:29.012Z,58.13
2023-07-16T11:35:29.041Z,59.55
2023-07-16T11:36:29.021Z,58.12
2023-07-16T11:37:28.988Z,58.61
2023-07-16T11:38:28.999Z,57.97
2023-07-16T11:39:29.009Z,56.90
2023-07-16T11:40:28.978Z,57.64
2023-07-16T11:41:28.953Z,59.13
2023-07-16T11:42:28.976Z,58.04
2023-07-16T11:43:28.940Z,58.90
2023-07-16T11:44:28.976Z,58.35
2023-07-16T11:45:28.920Z,58.08
2023-07-16T11:46:28.968Z,57.61
2023-07-16T11:47:28.986Z,58.41
2023-07-16T11:48:28.970Z,59.22
2023-07-16T11:49:28.920Z,59.84
2023-07-16T11:50:28.881Z,59.66
2023-07-16T11:51:28.860Z,58.21
2023-07-16T11:52:28.854Z,59.45
2023-07-16T11:53:28.867Z,60.11
2023-07-16T11:54:28.869Z,59.02
2023-07-16T11:55:28.855Z,58.91
2023-07-16T11:56:28.816Z,59.60
2023-07-16T11:57:28.822Z,59.45
2023-07-16T11:58:28.829Z,59.82
2023-07-16T11:59:28.790Z,59.66
2023-07-16T12:00:28.786Z,58.35
2023-07-16T12:01:28.827Z,59.10
2023-07-16T12:02:28.925Z,58.91
2023-07-16T12:03:28.993Z,59.73
2023-07-16T12:04:28.740Z,59.69
2023-07-16T12:05:46.343Z,60.42
2023-07-16T12:06:30.727Z,60.05
2023-07-16T12:07:28.732Z,60.54
2023-07-16T12:08:28.737Z,61.28
2023-07-16T12:09:28.719Z,61.88
2023-07-16T12:10:28.680Z,61.52
2023-07-16T12:11:28.684Z,61.26
2023-07-16T12:12:28.699Z,60.69
2023-07-16T12:13:28.674Z,61.57
2023-07-16T12:14:28.656Z,61.28
2023-07-16T12:15:28.652Z,61.26
2023-07-16T12:16:28.687Z,60.62
2023-07-16T12:17:28.781Z,59.72
2023-07-16T12:18:28.611Z,59.27
2023-07-16T12:19:28.610Z,59.05
2023-07-16T12:20:28.600Z,58.87
2023-07-16T12:21:28.675Z,59.05
2023-07-16T12:22:28.651Z,58.90
2023-07-16T12:23:28.574Z,59.10
2023-07-16T12:24:28.567Z,59.77
2023-07-16T12:25:28.550Z,59.14
2023-07-16T12:26:28.556Z,60.11
2023-07-16T12:27:28.572Z,59.76
2023-07-16T12:28:28.535Z,60.05
2023-07-16T12:29:28.524Z,58.93
2023-07-16T12:30:28.519Z,59.24
2023-07-16T12:31:28.568Z,58.68
2023-07-16T12:32:28.503Z,59.39
2023-07-16T12:33:28.467Z,59.96
2023-07-16T12:34:28.479Z,58.93
2023-07-16T12:35:28.499Z,58.26
2023-07-16T12:36:28.459Z,59.28
2023-07-16T12:37:28.461Z,59.61
2023-07-16T12:38:28.443Z,58.70
2023-07-16T12:39:28.424Z,59.01
2023-07-16T12:40:28.425Z,58.94
2023-07-16T12:41:28.411Z,59.21
2023-07-16T12:42:28.455Z,58.91
2023-07-16T12:43:28.410Z,58.11
2023-07-16T12:44:28.427Z,58.47
2023-07-16T12:45:28.390Z,58.25
2023-07-16T12:46:28.408Z,58.77
2023-07-16T12:47:28.396Z,58.34
2023-07-16T12:48:28.343Z,58.95
2023-07-16T12:49:28.346Z,58.92
2023-07-16T12:50:28.317Z,58.60
2023-07-16T12:51:28.333Z,59.16
2023-07-16T12:52:28.298Z,58.56